sensor_id;sensor_type;location;lat;lon;timestamp;pressure;altitude;pressure_sealevel;temperature;humidity
40574;BME280;26283;49.020;8.644;2024-03-29T00:01:29;97509.44;;;12.95;57.66
40574;BME280;26283;49.020;8.644;2024-03-29T00:03:55;97511.31;;;12.95;57.68
40574;BME280;26283;49.020;8.644;2024-03-29T00:06:20;97510.50;;;12.94;57.69
40574;BME280;26283;49.020;8.644;2024-03-29T00:08:46;97495.09;;;12.95;57.70
40574;BME280;26283;49.020;8.644;2024-03-29T00:11:12;97503.47;;;12.93;57.71
40574;BME280;26283;49.020;8.644;2024-03-29T00:13:37;97492.66;;;12.93;57.72
40574;BME280;26283;49.020;8.644;2024-03-29T00:16:03;97488.88;;;12.94;57.74
40574;BME280;26283;49.020;8.644;2024-03-29T00:18:28;97476.44;;;12.93;57.75
40574;BME280;26283;49.020;8.644;2024-03-29T00:20:54;97484.56;;;12.93;57.77
40574;BME280;26283;49.020;8.644;2024-03-29T00:23:19;97460.22;;;12.93;57.79
40574;BME280;26283;49.020;8.644;2024-03-29T00:25:44;97448.59;;;12.93;57.80
40574;BME280;26283;49.020;8.644;2024-03-29T00:28:10;97462.94;;;12.93;57.80
40574;BME280;26283;49.020;8.644;2024-03-29T00:30:35;97451.31;;;12.93;57.81
40574;BME280;26283;49.020;8.644;2024-03-29T00:33:00;97442.38;;;12.92;57.83
40574;BME280;26283;49.020;8.644;2024-03-29T00:35:26;97428.88;;;12.92;57.85
40574;BME280;26283;49.020;8.644;2024-03-29T00:37:51;97446.19;;;12.91;57.85
40574;BME280;26283;49.020;8.644;2024-03-29T00:40:17;97449.97;;;12.90;57.87
40574;BME280;26283;49.020;8.644;2024-03-29T00:42:42;97439.97;;;12.91;57.88
40574;BME280;26283;49.020;8.644;2024-03-29T00:45:08;97479.44;;;12.92;57.89
40574;BME280;26283;49.020;8.644;2024-03-29T00:47:33;97441.56;;;12.92;57.90
40574;BME280;26283;49.020;8.644;2024-03-29T00:50:00;97455.37;;;12.90;57.91
40574;BME280;26283;49.020;8.644;2024-03-29T00:52:25;97435.62;;;12.90;57.91
40574;BME280;26283;49.020;8.644;2024-03-29T00:54:50;97409.41;;;12.90;57.91
40574;BME280;26283;49.020;8.644;2024-03-29T00:57:16;97412.13;;;12.90;57.93
40574;BME280;26283;49.020;8.644;2024-03-29T00:59:42;97399.69;;;12.89;57.93
40574;BME280;26283;49.020;8.644;2024-03-29T01:02:09;97399.69;;;12.89;57.92
40574;BME280;26283;49.020;8.644;2024-03-29T01:04:34;97384.28;;;12.90;57.93
40574;BME280;26283;49.020;8.644;2024-03-29T01:07:00;97396.19;;;12.89;57.95
40574;BME280;26283;49.020;8.644;2024-03-29T01:09:25;97425.91;;;12.89;57.97
40574;BME280;26283;49.020;8.644;2024-03-29T01:11:51;97430.50;;;12.88;57.97
40574;BME280;26283;49.020;8.644;2024-03-29T01:14:16;97426.72;;;12.89;57.96
40574;BME280;26283;49.020;8.644;2024-03-29T01:16:42;97427.53;;;12.90;57.97
40574;BME280;26283;49.020;8.644;2024-03-29T01:19:07;97441.31;;;12.88;57.98
40574;BME280;26283;49.020;8.644;2024-03-29T01:21:35;97453.75;;;12.89;57.97
40574;BME280;26283;49.020;8.644;2024-03-29T01:24:01;97430.50;;;12.88;57.99
40574;BME280;26283;49.020;8.644;2024-03-29T01:26:26;97424.28;;;12.88;58.02
40574;BME280;26283;49.020;8.644;2024-03-29T01:28:51;97419.69;;;12.88;58.02
40574;BME280;26283;49.020;8.644;2024-03-29T01:31:17;97399.97;;;12.88;58.02
40574;BME280;26283;49.020;8.644;2024-03-29T01:33:42;97391.84;;;12.88;58.03
40574;BME280;26283;49.020;8.644;2024-03-29T01:36:08;97379.16;;;12.88;58.04
40574;BME280;26283;49.020;8.644;2024-03-29T01:38:33;97380.22;;;12.87;58.03
40574;BME280;26283;49.020;8.644;2024-03-29T01:40:59;97377.53;;;12.87;58.04
40574;BME280;26283;49.020;8.644;2024-03-29T01:43:24;97398.34;;;12.87;58.05
40574;BME280;26283;49.020;8.644;2024-03-29T01:45:53;97397.53;;;12.86;58.06
40574;BME280;26283;49.020;8.644;2024-03-29T01:48:21;97391.84;;;12.88;58.06
40574;BME280;26283;49.020;8.644;2024-03-29T01:50:47;97396.72;;;12.86;58.07
40574;BME280;26283;49.020;8.644;2024-03-29T01:53:14;97390.25;;;12.87;58.08
40574;BME280;26283;49.020;8.644;2024-03-29T01:55:41;97385.09;;;12.85;58.09
40574;BME280;26283;49.020;8.644;2024-03-29T01:58:08;97387.53;;;12.87;58.10
40574;BME280;26283;49.020;8.644;2024-03-29T02:00:36;97389.44;;;12.86;58.09
40574;BME280;26283;49.020;8.644;2024-03-29T02:03:04;97388.63;;;12.86;58.11
40574;BME280;26283;49.020;8.644;2024-03-29T02:05:35;97391.31;;;12.86;58.12
40574;BME280;26283;49.020;8.644;2024-03-29T02:08:00;97387.53;;;12.87;58.13
40574;BME280;26283;49.020;8.644;2024-03-29T02:10:26;97389.44;;;12.86;58.13
40574;BME280;26283;49.020;8.644;2024-03-29T02:12:51;97392.41;;;12.85;58.15
40574;BME280;26283;49.020;8.644;2024-03-29T02:15:16;97391.31;;;12.86;58.15
40574;BME280;26283;49.020;8.644;2024-03-29T02:17:42;97393.22;;;12.85;58.17
40574;BME280;26283;49.020;8.644;2024-03-29T02:20:08;97385.09;;;12.85;58.17
40574;BME280;26283;49.020;8.644;2024-03-29T02:22:36;97393.22;;;12.85;58.18
40574;BME280;26283;49.020;8.644;2024-03-29T02:25:06;97385.09;;;12.85;58.22
40574;BME280;26283;49.020;8.644;2024-03-29T02:27:31;97394.31;;;12.84;58.23
40574;BME280;26283;49.020;8.644;2024-03-29T02:29:57;97393.22;;;12.85;58.23
40574;BME280;26283;49.020;8.644;2024-03-29T02:32:22;97391.59;;;12.84;58.24
40574;BME280;26283;49.020;8.644;2024-03-29T02:34:48;97390.50;;;12.85;58.25
40574;BME280;26283;49.020;8.644;2024-03-29T02:37:13;97365.66;;;12.83;58.25
40574;BME280;26283;49.020;8.644;2024-03-29T02:39:38;97375.38;;;12.84;58.27
40574;BME280;26283;49.020;8.644;2024-03-29T02:42:04;97388.91;;;12.84;58.28
40574;BME280;26283;49.020;8.644;2024-03-29T02:44:29;97394.31;;;12.84;58.29
40574;BME280;26283;49.020;8.644;2024-03-29T02:46:55;97389.97;;;12.83;58.29
40574;BME280;26283;49.020;8.644;2024-03-29T02:49:20;97396.19;;;12.84;58.30
40574;BME280;26283;49.020;8.644;2024-03-29T02:51:46;97389.97;;;12.83;58.31
40574;BME280;26283;49.020;8.644;2024-03-29T02:54:11;97407.00;;;12.84;58.31
40574;BME280;26283;49.020;8.644;2024-03-29T02:56:36;97398.91;;;12.84;58.33
40574;BME280;26283;49.020;8.644;2024-03-29T02:59:02;97407.28;;;12.82;58.34
40574;BME280;26283;49.020;8.644;2024-03-29T03:01:27;97388.38;;;12.82;58.35
40574;BME280;26283;49.020;8.644;2024-03-29T03:03:52;97403.78;;;12.82;58.36
40574;BME280;26283;49.020;8.644;2024-03-29T03:06:18;97404.59;;;12.82;58.37
40574;BME280;26283;49.020;8.644;2024-03-29T03:08:43;97413.50;;;12.83;58.38
40574;BME280;26283;49.020;8.644;2024-03-29T03:11:27;97418.09;;;12.82;58.38
40574;BME280;26283;49.020;8.644;2024-03-29T03:13:53;97410.00;;;12.82;58.37
40574;BME280;26283;49.020;8.644;2024-03-29T03:16:18;97419.19;;;12.81;58.39
40574;BME280;26283;49.020;8.644;2024-03-29T03:18:43;97438.91;;;12.82;58.40
40574;BME280;26283;49.020;8.644;2024-03-29T03:21:09;97448.91;;;12.81;58.42
40574;BME280;26283;49.020;8.644;2024-03-29T03:23:34;97450.81;;;12.81;58.42
40574;BME280;26283;49.020;8.644;2024-03-29T03:26:01;97450.00;;;12.80;58.43
40574;BME280;26283;49.020;8.644;2024-03-29T03:28:29;97432.69;;;12.81;58.44
40574;BME280;26283;49.020;8.644;2024-03-29T03:30:54;97431.87;;;12.81;58.44
40574;BME280;26283;49.020;8.644;2024-03-29T03:33:20;97432.69;;;12.81;58.45
40574;BME280;26283;49.020;8.644;2024-03-29T03:35:46;97424.87;;;12.80;58.45
40574;BME280;26283;49.020;8.644;2024-03-29T03:38:12;97420.25;;;12.80;58.46
40574;BME280;26283;49.020;8.644;2024-03-29T03:40:38;97421.06;;;12.81;58.47
40574;BME280;26283;49.020;8.644;2024-03-29T03:43:05;97407.56;;;12.81;58.47
40574;BME280;26283;49.020;8.644;2024-03-29T03:45:38;97400.25;;;12.81;58.48
40574;BME280;26283;49.020;8.644;2024-03-29T03:48:06;97393.25;;;12.80;58.49
40574;BME280;26283;49.020;8.644;2024-03-29T03:50:32;97380.81;;;12.79;58.47
40574;BME280;26283;49.020;8.644;2024-03-29T03:52:57;97371.91;;;12.79;58.48
40574;BME280;26283;49.020;8.644;2024-03-29T03:55:23;97378.09;;;12.79;58.48
40574;BME280;26283;49.020;8.644;2024-03-29T03:57:49;97370.53;;;12.81;58.49
40574;BME280;26283;49.020;8.644;2024-03-29T04:00:14;97356.47;;;12.79;58.50
40574;BME280;26283;49.020;8.644;2024-03-29T04:02:40;97362.69;;;12.80;58.50
40574;BME280;26283;49.020;8.644;2024-03-29T04:05:06;97382.69;;;12.79;58.51
40574;BME280;26283;49.020;8.644;2024-03-29T04:07:32;97361.09;;;12.79;58.52
40574;BME280;26283;49.020;8.644;2024-03-29T04:09:57;97366.50;;;12.79;58.52
40574;BME280;26283;49.020;8.644;2024-03-29T04:12:22;97360.28;;;12.78;58.53
40574;BME280;26283;49.020;8.644;2024-03-29T04:14:48;97356.47;;;12.79;58.54
40574;BME280;26283;49.020;8.644;2024-03-29T04:17:13;97353.28;;;12.77;58.55
40574;BME280;26283;49.020;8.644;2024-03-29T04:19:39;97350.56;;;12.77;58.56
40574;BME280;26283;49.020;8.644;2024-03-29T04:22:04;97355.69;;;12.79;58.56
40574;BME280;26283;49.020;8.644;2024-03-29T04:24:30;97360.28;;;12.78;58.57
40574;BME280;26283;49.020;8.644;2024-03-29T04:26:55;97354.88;;;12.78;58.58
40574;BME280;26283;49.020;8.644;2024-03-29T04:29:20;97381.91;;;12.78;58.60
40574;BME280;26283;49.020;8.644;2024-03-29T04:31:46;97391.12;;;12.77;58.61
40574;BME280;26283;49.020;8.644;2024-03-29T04:34:11;97409.72;;;12.79;58.61
40574;BME280;26283;49.020;8.644;2024-03-29T04:36:36;97408.13;;;12.78;58.63
40574;BME280;26283;49.020;8.644;2024-03-29T04:39:02;97419.72;;;12.78;58.63
40574;BME280;26283;49.020;8.644;2024-03-29T04:41:27;97399.22;;;12.77;58.63
40574;BME280;26283;49.020;8.644;2024-03-29T04:43:53;97390.81;;;12.79;58.64
40574;BME280;26283;49.020;8.644;2024-03-29T04:46:18;97376.50;;;12.78;58.64
40574;BME280;26283;49.020;8.644;2024-03-29T04:48:43;97361.38;;;12.77;58.64
40574;BME280;26283;49.020;8.644;2024-03-29T04:51:11;97347.87;;;12.77;58.64
40574;BME280;26283;49.020;8.644;2024-03-29T04:53:36;97340.84;;;12.76;58.65
40574;BME280;26283;49.020;8.644;2024-03-29T04:56:03;97347.87;;;12.77;58.66
40574;BME280;26283;49.020;8.644;2024-03-29T04:58:29;97350.56;;;12.77;58.66
40574;BME280;26283;49.020;8.644;2024-03-29T05:00:55;97338.97;;;12.77;58.66
40574;BME280;26283;49.020;8.644;2024-03-29T05:03:21;97362.16;;;12.78;58.68
40574;BME280;26283;49.020;8.644;2024-03-29T05:05:49;97321.62;;;12.78;58.67
40574;BME280;26283;49.020;8.644;2024-03-29T05:08:15;97332.44;;;12.78;58.67
40574;BME280;26283;49.020;8.644;2024-03-29T05:10:40;97337.06;;;12.77;58.67
40574;BME280;26283;49.020;8.644;2024-03-29T05:13:06;97353.28;;;12.77;58.68
40574;BME280;26283;49.020;8.644;2024-03-29T05:15:32;97331.66;;;12.77;58.68
40574;BME280;26283;49.020;8.644;2024-03-29T05:17:57;97337.06;;;12.77;58.69
40574;BME280;26283;49.020;8.644;2024-03-29T05:20:22;97335.16;;;12.78;58.69
40574;BME280;26283;49.020;8.644;2024-03-29T05:22:48;97347.87;;;12.77;58.69
40574;BME280;26283;49.020;8.644;2024-03-29T05:25:13;97355.97;;;12.77;58.70
40574;BME280;26283;49.020;8.644;2024-03-29T05:27:38;97358.97;;;12.76;58.72
40574;BME280;26283;49.020;8.644;2024-03-29T05:30:04;97357.88;;;12.77;58.71
40574;BME280;26283;49.020;8.644;2024-03-29T05:32:30;97351.66;;;12.76;58.73
40574;BME280;26283;49.020;8.644;2024-03-29T05:34:56;97355.97;;;12.77;58.73
40574;BME280;26283;49.020;8.644;2024-03-29T05:37:22;97355.19;;;12.77;58.74
40574;BME280;26283;49.020;8.644;2024-03-29T05:39:50;97353.56;;;12.76;58.75
40574;BME280;26283;49.020;8.644;2024-03-29T05:42:24;97351.66;;;12.76;58.76
40574;BME280;26283;49.020;8.644;2024-03-29T05:44:50;97363.28;;;12.77;58.77
40574;BME280;26283;49.020;8.644;2024-03-29T05:47:15;97362.47;;;12.76;58.76
40574;BME280;26283;49.020;8.644;2024-03-29T05:49:41;97377.88;;;12.76;58.79
40574;BME280;26283;49.020;8.644;2024-03-29T05:52:06;97361.66;;;12.76;58.79
40574;BME280;26283;49.020;8.644;2024-03-29T05:54:31;97356.25;;;12.76;58.79
40574;BME280;26283;49.020;8.644;2024-03-29T05:56:56;97360.84;;;12.75;58.80
40574;BME280;26283;49.020;8.644;2024-03-29T05:59:22;97360.84;;;12.75;58.82
40574;BME280;26283;49.020;8.644;2024-03-29T06:01:47;97379.78;;;12.75;58.84
40574;BME280;26283;49.020;8.644;2024-03-29T06:04:13;97378.69;;;12.76;58.84
40574;BME280;26283;49.020;8.644;2024-03-29T06:06:44;97375.19;;;12.76;58.84
40574;BME280;26283;49.020;8.644;2024-03-29T06:09:10;97384.09;;;12.76;58.84
40574;BME280;26283;49.020;8.644;2024-03-29T06:11:35;97388.69;;;12.76;58.85
40574;BME280;26283;49.020;8.644;2024-03-29T06:14:00;97387.88;;;12.75;58.86
40574;BME280;26283;49.020;8.644;2024-03-29T06:16:28;97398.69;;;12.75;58.86
40574;BME280;26283;49.020;8.644;2024-03-29T06:19:12;97396.00;;;12.75;58.86
40574;BME280;26283;49.020;8.644;2024-03-29T06:21:38;97386.00;;;12.76;58.86
40574;BME280;26283;49.020;8.644;2024-03-29T06:24:11;97395.19;;;12.75;58.87
40574;BME280;26283;49.020;8.644;2024-03-29T06:26:41;97393.28;;;12.75;58.89
40574;BME280;26283;49.020;8.644;2024-03-29T06:29:07;97389.78;;;12.75;58.89
40574;BME280;26283;49.020;8.644;2024-03-29T06:31:35;97381.66;;;12.75;58.89
40574;BME280;26283;49.020;8.644;2024-03-29T06:34:01;97380.06;;;12.74;58.89
40574;BME280;26283;49.020;8.644;2024-03-29T06:36:26;97375.44;;;12.74;58.89
40574;BME280;26283;49.020;8.644;2024-03-29T06:38:56;97370.06;;;12.74;58.90
40574;BME280;26283;49.020;8.644;2024-03-29T06:41:21;97373.56;;;12.75;58.90
40574;BME280;26283;49.020;8.644;2024-03-29T06:43:47;97360.84;;;12.75;58.89
40574;BME280;26283;49.020;8.644;2024-03-29T06:46:13;97375.44;;;12.74;58.89
40574;BME280;26283;49.020;8.644;2024-03-29T06:48:39;97375.44;;;12.74;58.90
40574;BME280;26283;49.020;8.644;2024-03-29T06:51:05;97377.06;;;12.75;58.90
40574;BME280;26283;49.020;8.644;2024-03-29T06:53:30;97372.75;;;12.74;58.91
40574;BME280;26283;49.020;8.644;2024-03-29T06:55:56;97375.44;;;12.74;58.91
40574;BME280;26283;49.020;8.644;2024-03-29T06:58:22;97383.56;;;12.74;58.90
40574;BME280;26283;49.020;8.644;2024-03-29T07:00:48;97383.56;;;12.74;58.91
40574;BME280;26283;49.020;8.644;2024-03-29T07:03:15;97375.44;;;12.74;58.91
40574;BME280;26283;49.020;8.644;2024-03-29T07:05:40;97367.34;;;12.74;58.91
40574;BME280;26283;49.020;8.644;2024-03-29T07:08:06;97364.66;;;12.74;58.90
40574;BME280;26283;49.020;8.644;2024-03-29T07:10:31;97358.97;;;12.76;58.91
40574;BME280;26283;49.020;8.644;2024-03-29T07:12:57;97362.47;;;12.76;58.90
40574;BME280;26283;49.020;8.644;2024-03-29T07:15:22;97368.97;;;12.75;58.89
40574;BME280;26283;49.020;8.644;2024-03-29T07:17:48;97365.44;;;12.75;58.89
40574;BME280;26283;49.020;8.644;2024-03-29T07:20:16;97378.16;;;12.74;58.89
40574;BME280;26283;49.020;8.644;2024-03-29T07:22:41;97378.16;;;12.74;58.89
40574;BME280;26283;49.020;8.644;2024-03-29T07:25:07;97397.88;;;12.75;58.89
40574;BME280;26283;49.020;8.644;2024-03-29T07:27:38;97398.69;;;12.75;58.88
40574;BME280;26283;49.020;8.644;2024-03-29T07:30:06;97414.09;;;12.75;58.89
40574;BME280;26283;49.020;8.644;2024-03-29T07:32:33;97425.72;;;12.75;58.87
40574;BME280;26283;49.020;8.644;2024-03-29T07:34:59;97440.84;;;12.76;58.89
40574;BME280;26283;49.020;8.644;2024-03-29T07:37:25;97436.53;;;12.75;58.88
40574;BME280;26283;49.020;8.644;2024-03-29T07:39:51;97443.81;;;12.75;58.89
40574;BME280;26283;49.020;8.644;2024-03-29T07:42:16;97446.25;;;12.76;58.89
40574;BME280;26283;49.020;8.644;2024-03-29T07:44:42;97458.97;;;12.76;58.90
40574;BME280;26283;49.020;8.644;2024-03-29T07:47:08;97467.06;;;12.76;58.90
40574;BME280;26283;49.020;8.644;2024-03-29T07:49:33;97448.16;;;12.76;58.90
40574;BME280;26283;49.020;8.644;2024-03-29T07:51:59;97430.03;;;12.76;58.88
40574;BME280;26283;49.020;8.644;2024-03-29T07:54:27;97426.53;;;12.76;58.90
40574;BME280;26283;49.020;8.644;2024-03-29T07:56:52;97433.56;;;12.77;58.89
40574;BME280;26283;49.020;8.644;2024-03-29T07:59:18;97442.47;;;12.77;58.89
40574;BME280;26283;49.020;8.644;2024-03-29T08:01:45;97465.97;;;12.77;58.89
40574;BME280;26283;49.020;8.644;2024-03-29T08:04:10;97474.91;;;12.77;58.89
40574;BME280;26283;49.020;8.644;2024-03-29T08:06:35;97474.91;;;12.77;58.89
40574;BME280;26283;49.020;8.644;2024-03-29T08:09:01;97478.37;;;12.78;58.89
40574;BME280;26283;49.020;8.644;2024-03-29T08:11:27;97472.97;;;12.78;58.89
40574;BME280;26283;49.020;8.644;2024-03-29T08:13:52;97472.19;;;12.77;58.89
40574;BME280;26283;49.020;8.644;2024-03-29T08:16:17;97478.37;;;12.78;58.89
40574;BME280;26283;49.020;8.644;2024-03-29T08:18:45;97483.78;;;12.78;58.88
40574;BME280;26283;49.020;8.644;2024-03-29T08:21:11;97495.41;;;12.78;58.89
40574;BME280;26283;49.020;8.644;2024-03-29T08:23:41;97505.12;;;12.79;58.89
40574;BME280;26283;49.020;8.644;2024-03-29T08:26:07;97502.44;;;12.79;58.89
40574;BME280;26283;49.020;8.644;2024-03-29T08:28:33;97505.12;;;12.79;58.89
40574;BME280;26283;49.020;8.644;2024-03-29T08:31:06;97505.12;;;12.79;58.89
40574;BME280;26283;49.020;8.644;2024-03-29T08:33:32;97516.75;;;12.80;58.91
40574;BME280;26283;49.020;8.644;2024-03-29T08:35:58;97520.28;;;12.80;58.89
40574;BME280;26283;49.020;8.644;2024-03-29T08:38:24;97520.28;;;12.80;58.89
40574;BME280;26283;49.020;8.644;2024-03-29T08:40:49;97531.09;;;12.80;58.89
40574;BME280;26283;49.020;8.644;2024-03-29T08:43:15;97539.19;;;12.80;58.89
40574;BME280;26283;49.020;8.644;2024-03-29T08:45:43;97541.91;;;12.80;58.88
40574;BME280;26283;49.020;8.644;2024-03-29T08:48:09;97550.81;;;12.81;58.88
40574;BME280;26283;49.020;8.644;2024-03-29T08:50:35;97552.44;;;12.82;58.88
40574;BME280;26283;49.020;8.644;2024-03-29T08:53:01;97547.84;;;12.82;58.88
40574;BME280;26283;49.020;8.644;2024-03-29T08:55:31;97561.34;;;12.82;58.88
40574;BME280;26283;49.020;8.644;2024-03-29T08:58:00;97566.75;;;12.82;58.88
40574;BME280;26283;49.020;8.644;2024-03-29T09:00:27;97566.75;;;12.82;58.88
40574;BME280;26283;49.020;8.644;2024-03-29T09:02:52;97561.34;;;12.82;58.88
40574;BME280;26283;49.020;8.644;2024-03-29T09:05:18;97561.34;;;12.82;58.88
40574;BME280;26283;49.020;8.644;2024-03-29T09:07:44;97567.56;;;12.83;58.88
40574;BME280;26283;49.020;8.644;2024-03-29T09:10:09;97567.56;;;12.83;58.87
40574;BME280;26283;49.020;8.644;2024-03-29T09:12:34;97568.38;;;12.83;58.88
40574;BME280;26283;49.020;8.644;2024-03-29T09:15:00;97567.56;;;12.83;58.87
40574;BME280;26283;49.020;8.644;2024-03-29T09:17:26;97565.69;;;12.83;58.88
40574;BME280;26283;49.020;8.644;2024-03-29T09:19:52;97569.19;;;12.84;58.86
40574;BME280;26283;49.020;8.644;2024-03-29T09:22:17;97579.19;;;12.83;58.86
40574;BME280;26283;49.020;8.644;2024-03-29T09:24:43;97577.31;;;12.84;58.87
40574;BME280;26283;49.020;8.644;2024-03-29T09:27:08;97580.81;;;12.84;58.87
40574;BME280;26283;49.020;8.644;2024-03-29T09:29:34;97588.12;;;12.84;58.87
40574;BME280;26283;49.020;8.644;2024-03-29T09:31:59;97588.94;;;12.84;58.87
40574;BME280;26283;49.020;8.644;2024-03-29T09:34:27;97597.84;;;12.85;58.87
40574;BME280;26283;49.020;8.644;2024-03-29T09:36:52;97607.56;;;12.86;58.87
40574;BME280;26283;49.020;8.644;2024-03-29T09:39:18;97603.25;;;12.85;58.88
40574;BME280;26283;49.020;8.644;2024-03-29T09:41:45;97602.16;;;12.86;58.88
40574;BME280;26283;49.020;8.644;2024-03-29T09:44:11;97597.84;;;12.85;58.88
40574;BME280;26283;49.020;8.644;2024-03-29T09:46:37;97597.84;;;12.85;58.88
40574;BME280;26283;49.020;8.644;2024-03-29T09:49:05;97586.22;;;12.84;58.88
40574;BME280;26283;49.020;8.644;2024-03-29T09:51:32;97587.03;;;12.85;58.88
40574;BME280;26283;49.020;8.644;2024-03-29T09:53:59;97579.72;;;12.85;58.88
40574;BME280;26283;49.020;8.644;2024-03-29T09:56:26;97589.47;;;12.86;58.89
40574;BME280;26283;49.020;8.644;2024-03-29T09:58:52;97587.84;;;12.85;58.90
40574;BME280;26283;49.020;8.644;2024-03-29T10:01:18;97592.44;;;12.85;58.91
40574;BME280;26283;49.020;8.644;2024-03-29T10:03:48;97584.06;;;12.86;58.90
40574;BME280;26283;49.020;8.644;2024-03-29T10:06:15;97581.34;;;12.86;58.90
40574;BME280;26283;49.020;8.644;2024-03-29T10:08:40;97568.91;;;12.85;58.90
40574;BME280;26283;49.020;8.644;2024-03-29T10:11:06;97565.12;;;12.86;58.90
40574;BME280;26283;49.020;8.644;2024-03-29T10:13:32;97569.47;;;12.87;58.90
40574;BME280;26283;49.020;8.644;2024-03-29T10:15:57;97567.03;;;12.86;58.91
40574;BME280;26283;49.020;8.644;2024-03-29T10:18:26;97560.53;;;12.87;58.91
40574;BME280;26283;49.020;8.644;2024-03-29T10:21:02;97557.84;;;12.87;58.91
40574;BME280;26283;49.020;8.644;2024-03-29T10:23:29;97557.03;;;12.86;58.92
40574;BME280;26283;49.020;8.644;2024-03-29T10:25:55;97547.84;;;12.87;58.91
40574;BME280;26283;49.020;8.644;2024-03-29T10:28:20;97552.44;;;12.87;58.91
40574;BME280;26283;49.020;8.644;2024-03-29T10:30:46;97555.13;;;12.87;58.92
40574;BME280;26283;49.020;8.644;2024-03-29T10:33:15;97542.44;;;12.87;58.92
40574;BME280;26283;49.020;8.644;2024-03-29T10:35:44;97535.41;;;12.86;58.92
40574;BME280;26283;49.020;8.644;2024-03-29T10:38:10;97527.00;;;12.88;58.92
40574;BME280;26283;49.020;8.644;2024-03-29T10:40:39;97529.72;;;12.88;58.91
40574;BME280;26283;49.020;8.644;2024-03-29T10:43:10;97518.91;;;12.88;58.92
40574;BME280;26283;49.020;8.644;2024-03-29T10:45:38;97510.78;;;12.88;58.91
40574;BME280;26283;49.020;8.644;2024-03-29T10:48:04;97504.59;;;12.87;58.92
40574;BME280;26283;49.020;8.644;2024-03-29T10:50:37;97502.97;;;12.86;58.92
40574;BME280;26283;49.020;8.644;2024-03-29T10:53:05;97493.78;;;12.87;58.92
40574;BME280;26283;49.020;8.644;2024-03-29T10:55:33;97491.59;;;12.89;58.91
40574;BME280;26283;49.020;8.644;2024-03-29T10:58:00;97489.97;;;12.88;58.91
40574;BME280;26283;49.020;8.644;2024-03-29T11:00:28;97483.50;;;12.89;58.91
40574;BME280;26283;49.020;8.644;2024-03-29T11:05:35;97476.19;;;12.90;58.90
40574;BME280;26283;49.020;8.644;2024-03-29T11:08:06;97464.56;;;12.89;58.88
40574;BME280;26283;49.020;8.644;2024-03-29T11:10:44;97460.78;;;12.90;58.89
40574;BME280;26283;49.020;8.644;2024-03-29T11:15:50;97462.41;;;12.91;58.88
40574;BME280;26283;49.020;8.644;2024-03-29T11:18:16;97465.09;;;12.91;58.88
40574;BME280;26283;49.020;8.644;2024-03-29T11:20:45;97474.84;;;12.92;58.88
40574;BME280;26283;49.020;8.644;2024-03-29T11:23:16;97482.94;;;12.92;58.88
40574;BME280;26283;49.020;8.644;2024-03-29T11:25:44;97476.44;;;12.93;58.87
40574;BME280;26283;49.020;8.644;2024-03-29T11:28:16;97475.38;;;12.94;58.87
40574;BME280;26283;49.020;8.644;2024-03-29T11:30:49;97471.03;;;12.93;58.88
40574;BME280;26283;49.020;8.644;2024-03-29T11:33:49;97472.66;;;12.94;58.87
40574;BME280;26283;49.020;8.644;2024-03-29T11:36:42;97481.59;;;12.95;58.88
40574;BME280;26283;49.020;8.644;2024-03-29T11:39:23;97486.19;;;12.94;58.88
40574;BME280;26283;49.020;8.644;2024-03-29T11:42:22;97499.69;;;12.94;58.87
40574;BME280;26283;49.020;8.644;2024-03-29T11:45:03;97495.09;;;12.95;58.90
40574;BME280;26283;49.020;8.644;2024-03-29T11:47:32;97496.72;;;12.96;58.86
40574;BME280;26283;49.020;8.644;2024-03-29T11:49:58;97504.03;;;12.95;58.88
40574;BME280;26283;49.020;8.644;2024-03-29T11:52:29;97506.72;;;12.95;58.88
40574;BME280;26283;49.020;8.644;2024-03-29T11:54:56;97514.56;;;12.97;58.88
40574;BME280;26283;49.020;8.644;2024-03-29T11:57:44;97507.28;;;12.92;58.88
40574;BME280;26283;49.020;8.644;2024-03-29T12:00:12;97522.41;;;12.98;58.88
40574;BME280;26283;49.020;8.644;2024-03-29T12:02:44;97533.22;;;12.98;58.88
40574;BME280;26283;49.020;8.644;2024-03-29T12:05:10;97539.69;;;12.97;58.88
40574;BME280;26283;49.020;8.644;2024-03-29T12:08:06;97539.44;;;12.99;58.86
40574;BME280;26283;49.020;8.644;2024-03-29T12:10:31;97539.16;;;12.95;58.88
40574;BME280;26283;49.020;8.644;2024-03-29T12:13:00;97553.44;;;13.01;58.84
40574;BME280;26283;49.020;8.644;2024-03-29T12:15:32;97546.16;;;13.01;58.86
40574;BME280;26283;49.020;8.644;2024-03-29T12:18:23;97541.81;;;13.00;58.86
40574;BME280;26283;49.020;8.644;2024-03-29T12:20:49;97552.38;;;13.02;58.88
40574;BME280;26283;49.020;8.644;2024-03-29T12:23:17;97556.69;;;13.03;58.84
40574;BME280;26283;49.020;8.644;2024-03-29T12:25:43;97565.62;;;13.03;58.86
40574;BME280;26283;49.020;8.644;2024-03-29T12:28:10;97569.94;;;13.04;58.86
40574;BME280;26283;49.020;8.644;2024-03-29T12:30:53;97565.34;;;13.05;58.85
40574;BME280;26283;49.020;8.644;2024-03-29T12:33:22;97549.13;;;13.05;58.85
40574;BME280;26283;49.020;8.644;2024-03-29T12:35:52;97556.16;;;13.06;58.85
40574;BME280;26283;49.020;8.644;2024-03-29T12:38:21;97545.34;;;13.06;58.85
40574;BME280;26283;49.020;8.644;2024-03-29T12:40:48;97534.50;;;13.06;58.83
40574;BME280;26283;49.020;8.644;2024-03-29T12:43:21;97537.75;;;13.08;58.83
40574;BME280;26283;49.020;8.644;2024-03-29T12:45:48;97546.69;;;13.09;58.83
40574;BME280;26283;49.020;8.644;2024-03-29T12:48:15;97560.19;;;13.09;58.79
40574;BME280;26283;49.020;8.644;2024-03-29T12:50:42;97556.41;;;13.10;58.82
40574;BME280;26283;49.020;8.644;2024-03-29T12:53:09;97545.59;;;13.10;58.80
40574;BME280;26283;49.020;8.644;2024-03-29T12:55:35;97561.53;;;13.11;58.79
40574;BME280;26283;49.020;8.644;2024-03-29T12:58:03;97565.06;;;13.12;58.79
40574;BME280;26283;49.020;8.644;2024-03-29T13:00:33;97565.59;;;13.14;58.81
40574;BME280;26283;49.020;8.644;2024-03-29T13:02:58;97556.66;;;13.13;58.78
40574;BME280;26283;49.020;8.644;2024-03-29T13:05:23;97553.97;;;13.13;58.78